Günzburg-Donauried Airport EDMG

Flugplatz Daten

Name: Günzburg-Donauried Airport

Ident: EDMG

Lat: 48,48666763

Long: 10,28333282

Platzhöhe: 1457 ft

IataCode:

City: Günzburg

Metar

2015/10/22 01:00
LYBE 220100Z 20003KT 3000 R12/P2000N R30/0450D BR NSC 07/06 Q1016 BEDMG 0800 FG

Taf

Gewünschte Webcam nicht vorhanden? Dann fügen Sie eine hinzu. Sie wird dann so schnell wie möglich freigeschaltet
Url: Title: